sensor_id;sensor_type;location;lat;lon;timestamp;temperature;humidity
39095;DHT22;24840;47.508;19.376;2023-09-08T00:00:56;13.00;99.90
39095;DHT22;24840;47.508;19.376;2023-09-08T00:03:22;12.90;99.90
39095;DHT22;24840;47.508;19.376;2023-09-08T00:05:48;12.90;99.90
39095;DHT22;24840;47.508;19.376;2023-09-08T00:08:13;12.80;99.90
39095;DHT22;24840;47.508;19.376;2023-09-08T00:10:39;12.80;99.90
39095;DHT22;24840;47.508;19.376;2023-09-08T00:13:05;12.90;99.90
39095;DHT22;24840;47.508;19.376;2023-09-08T00:15:33;12.80;99.90
39095;DHT22;24840;47.508;19.376;2023-09-08T00:17:59;12.70;99.90
39095;DHT22;24840;47.508;19.376;2023-09-08T00:20:25;12.70;99.90
39095;DHT22;24840;47.508;19.376;2023-09-08T00:22:50;12.70;99.90
39095;DHT22;24840;47.508;19.376;2023-09-08T00:25:16;12.60;99.90
39095;DHT22;24840;47.508;19.376;2023-09-08T00:27:42;12.60;99.90
39095;DHT22;24840;47.508;19.376;2023-09-08T00:30:08;12.60;99.90
39095;DHT22;24840;47.508;19.376;2023-09-08T00:32:33;12.60;99.90
39095;DHT22;24840;47.508;19.376;2023-09-08T00:34:59;12.50;99.90
39095;DHT22;24840;47.508;19.376;2023-09-08T00:37:25;12.40;99.90
39095;DHT22;24840;47.508;19.376;2023-09-08T00:39:50;12.40;99.90
39095;DHT22;24840;47.508;19.376;2023-09-08T00:42:16;12.40;99.90
39095;DHT22;24840;47.508;19.376;2023-09-08T00:44:42;12.30;99.90
39095;DHT22;24840;47.508;19.376;2023-09-08T00:47:08;12.30;99.90
39095;DHT22;24840;47.508;19.376;2023-09-08T00:49:33;12.30;99.90
39095;DHT22;24840;47.508;19.376;2023-09-08T00:51:59;12.20;99.90
39095;DHT22;24840;47.508;19.376;2023-09-08T00:54:25;12.20;99.90
39095;DHT22;24840;47.508;19.376;2023-09-08T00:56:57;12.20;99.90
39095;DHT22;24840;47.508;19.376;2023-09-08T00:59:24;12.20;99.90
39095;DHT22;24840;47.508;19.376;2023-09-08T01:01:51;12.10;99.90
39095;DHT22;24840;47.508;19.376;2023-09-08T01:04:17;12.10;99.90
39095;DHT22;24840;47.508;19.376;2023-09-08T01:06:43;12.10;99.90
39095;DHT22;24840;47.508;19.376;2023-09-08T01:09:10;12.00;99.90
39095;DHT22;24840;47.508;19.376;2023-09-08T01:11:36;12.00;99.90
39095;DHT22;24840;47.508;19.376;2023-09-08T01:14:02;12.10;99.90
39095;DHT22;24840;47.508;19.376;2023-09-08T01:16:28;12.10;99.90
39095;DHT22;24840;47.508;19.376;2023-09-08T01:18:54;12.20;99.90
39095;DHT22;24840;47.508;19.376;2023-09-08T01:27:34;12.00;99.90
39095;DHT22;24840;47.508;19.376;2023-09-08T01:30:02;11.90;99.90
39095;DHT22;24840;47.508;19.376;2023-09-08T01:32:29;11.90;99.90
39095;DHT22;24840;47.508;19.376;2023-09-08T01:34:57;11.90;99.90
39095;DHT22;24840;47.508;19.376;2023-09-08T01:37:23;11.90;99.90
39095;DHT22;24840;47.508;19.376;2023-09-08T01:39:49;12.00;99.90
39095;DHT22;24840;47.508;19.376;2023-09-08T01:42:15;12.00;99.90
39095;DHT22;24840;47.508;19.376;2023-09-08T01:44:40;12.00;99.90
39095;DHT22;24840;47.508;19.376;2023-09-08T01:47:06;12.00;99.90
39095;DHT22;24840;47.508;19.376;2023-09-08T01:49:32;12.10;99.90
39095;DHT22;24840;47.508;19.376;2023-09-08T01:51:57;12.00;99.90
39095;DHT22;24840;47.508;19.376;2023-09-08T01:54:23;12.00;99.90
39095;DHT22;24840;47.508;19.376;2023-09-08T01:56:49;12.00;99.90
39095;DHT22;24840;47.508;19.376;2023-09-08T01:59:16;12.00;99.90
39095;DHT22;24840;47.508;19.376;2023-09-08T02:01:42;12.00;99.90
39095;DHT22;24840;47.508;19.376;2023-09-08T02:04:08;12.00;99.90
39095;DHT22;24840;47.508;19.376;2023-09-08T02:06:34;12.00;99.90
39095;DHT22;24840;47.508;19.376;2023-09-08T02:08:59;12.00;99.90
39095;DHT22;24840;47.508;19.376;2023-09-08T02:11:25;11.90;99.90
39095;DHT22;24840;47.508;19.376;2023-09-08T02:13:52;11.90;99.90
39095;DHT22;24840;47.508;19.376;2023-09-08T02:16:18;11.80;99.90
39095;DHT22;24840;47.508;19.376;2023-09-08T02:18:44;11.80;99.90
39095;DHT22;24840;47.508;19.376;2023-09-08T02:21:10;11.70;99.90
39095;DHT22;24840;47.508;19.376;2023-09-08T02:23:36;11.70;99.90
39095;DHT22;24840;47.508;19.376;2023-09-08T02:26:02;11.70;99.90
39095;DHT22;24840;47.508;19.376;2023-09-08T02:28:28;11.70;99.90
39095;DHT22;24840;47.508;19.376;2023-09-08T02:30:54;11.80;99.90
39095;DHT22;24840;47.508;19.376;2023-09-08T02:33:20;11.80;99.90
39095;DHT22;24840;47.508;19.376;2023-09-08T02:35:46;11.70;99.90
39095;DHT22;24840;47.508;19.376;2023-09-08T02:38:12;11.60;99.90
39095;DHT22;24840;47.508;19.376;2023-09-08T02:40:37;11.60;99.90
39095;DHT22;24840;47.508;19.376;2023-09-08T02:43:03;11.60;99.90
39095;DHT22;24840;47.508;19.376;2023-09-08T02:45:30;11.50;99.90
39095;DHT22;24840;47.508;19.376;2023-09-08T02:47:55;11.50;99.90
39095;DHT22;24840;47.508;19.376;2023-09-08T02:50:22;11.40;99.90
39095;DHT22;24840;47.508;19.376;2023-09-08T02:52:47;11.40;99.90
39095;DHT22;24840;47.508;19.376;2023-09-08T02:55:13;11.30;99.90
39095;DHT22;24840;47.508;19.376;2023-09-08T02:57:39;11.20;99.90
39095;DHT22;24840;47.508;19.376;2023-09-08T03:00:06;11.20;99.90
39095;DHT22;24840;47.508;19.376;2023-09-08T03:02:33;11.20;99.90
39095;DHT22;24840;47.508;19.376;2023-09-08T03:04:59;11.20;99.90
39095;DHT22;24840;47.508;19.376;2023-09-08T03:07:26;11.20;99.90
39095;DHT22;24840;47.508;19.376;2023-09-08T03:09:52;11.20;99.90
39095;DHT22;24840;47.508;19.376;2023-09-08T03:12:18;11.20;99.90
39095;DHT22;24840;47.508;19.376;2023-09-08T03:14:44;11.10;99.90
39095;DHT22;24840;47.508;19.376;2023-09-08T03:17:11;11.10;99.90
39095;DHT22;24840;47.508;19.376;2023-09-08T03:19:36;11.10;99.90
39095;DHT22;24840;47.508;19.376;2023-09-08T03:22:02;11.10;99.90
39095;DHT22;24840;47.508;19.376;2023-09-08T03:24:28;11.20;99.90
39095;DHT22;24840;47.508;19.376;2023-09-08T03:26:54;11.20;99.90
39095;DHT22;24840;47.508;19.376;2023-09-08T03:29:19;11.30;99.90
39095;DHT22;24840;47.508;19.376;2023-09-08T03:31:45;11.30;99.90
39095;DHT22;24840;47.508;19.376;2023-09-08T03:34:11;11.30;99.90
39095;DHT22;24840;47.508;19.376;2023-09-08T03:36:36;11.30;99.90
39095;DHT22;24840;47.508;19.376;2023-09-08T03:39:03;11.30;99.90
39095;DHT22;24840;47.508;19.376;2023-09-08T03:41:29;11.30;99.90
39095;DHT22;24840;47.508;19.376;2023-09-08T03:43:54;11.30;99.90
39095;DHT22;24840;47.508;19.376;2023-09-08T03:46:20;11.30;99.90
39095;DHT22;24840;47.508;19.376;2023-09-08T03:48:46;11.30;99.90
39095;DHT22;24840;47.508;19.376;2023-09-08T03:51:12;11.30;99.90
39095;DHT22;24840;47.508;19.376;2023-09-08T03:53:37;11.30;99.90
39095;DHT22;24840;47.508;19.376;2023-09-08T03:56:03;11.30;99.90
39095;DHT22;24840;47.508;19.376;2023-09-08T03:58:29;11.30;99.90
39095;DHT22;24840;47.508;19.376;2023-09-08T04:00:55;11.30;99.90
39095;DHT22;24840;47.508;19.376;2023-09-08T04:03:20;11.30;99.90
39095;DHT22;24840;47.508;19.376;2023-09-08T04:05:46;11.30;99.90
39095;DHT22;24840;47.508;19.376;2023-09-08T04:08:12;11.30;99.90
39095;DHT22;24840;47.508;19.376;2023-09-08T04:10:37;11.30;99.90
39095;DHT22;24840;47.508;19.376;2023-09-08T04:13:04;11.30;99.90
39095;DHT22;24840;47.508;19.376;2023-09-08T04:15:29;11.40;99.90
39095;DHT22;24840;47.508;19.376;2023-09-08T04:17:55;11.30;99.90
39095;DHT22;24840;47.508;19.376;2023-09-08T04:20:22;11.30;99.90
39095;DHT22;24840;47.508;19.376;2023-09-08T04:22:48;11.30;99.90
39095;DHT22;24840;47.508;19.376;2023-09-08T04:25:14;11.30;99.90
39095;DHT22;24840;47.508;19.376;2023-09-08T04:27:40;11.30;99.90
39095;DHT22;24840;47.508;19.376;2023-09-08T04:30:06;11.30;99.90
39095;DHT22;24840;47.508;19.376;2023-09-08T04:32:33;11.30;99.90
39095;DHT22;24840;47.508;19.376;2023-09-08T04:34:58;11.40;99.90
39095;DHT22;24840;47.508;19.376;2023-09-08T04:37:24;11.40;99.90
39095;DHT22;24840;47.508;19.376;2023-09-08T04:39:50;11.40;99.90
39095;DHT22;24840;47.508;19.376;2023-09-08T04:42:15;11.30;99.90
39095;DHT22;24840;47.508;19.376;2023-09-08T04:44:41;11.20;99.90
39095;DHT22;24840;47.508;19.376;2023-09-08T04:47:07;11.20;99.90
39095;DHT22;24840;47.508;19.376;2023-09-08T04:49:33;11.20;99.90
39095;DHT22;24840;47.508;19.376;2023-09-08T04:51:58;11.20;99.90
39095;DHT22;24840;47.508;19.376;2023-09-08T04:54:24;11.30;99.90
39095;DHT22;24840;47.508;19.376;2023-09-08T04:56:53;11.20;99.90
39095;DHT22;24840;47.508;19.376;2023-09-08T04:59:19;11.10;99.90
39095;DHT22;24840;47.508;19.376;2023-09-08T05:01:45;11.20;99.90
39095;DHT22;24840;47.508;19.376;2023-09-08T05:04:11;11.30;99.90
39095;DHT22;24840;47.508;19.376;2023-09-08T05:06:37;11.30;99.90
39095;DHT22;24840;47.508;19.376;2023-09-08T05:09:02;11.40;99.90
39095;DHT22;24840;47.508;19.376;2023-09-08T05:11:28;11.50;99.90
39095;DHT22;24840;47.508;19.376;2023-09-08T05:13:54;11.60;99.90
39095;DHT22;24840;47.508;19.376;2023-09-08T05:16:20;11.50;99.90
39095;DHT22;24840;47.508;19.376;2023-09-08T05:19:01;11.60;99.90
39095;DHT22;24840;47.508;19.376;2023-09-08T05:21:27;11.60;99.90
39095;DHT22;24840;47.508;19.376;2023-09-08T05:23:53;11.70;99.90
39095;DHT22;24840;47.508;19.376;2023-09-08T05:26:18;11.80;99.90
39095;DHT22;24840;47.508;19.376;2023-09-08T05:28:44;11.90;99.90
39095;DHT22;24840;47.508;19.376;2023-09-08T05:31:10;12.10;99.90
39095;DHT22;24840;47.508;19.376;2023-09-08T05:33:35;12.20;99.90
39095;DHT22;24840;47.508;19.376;2023-09-08T05:36:01;12.30;99.90
39095;DHT22;24840;47.508;19.376;2023-09-08T05:38:27;12.40;99.90
39095;DHT22;24840;47.508;19.376;2023-09-08T05:40:54;12.60;99.90
39095;DHT22;24840;47.508;19.376;2023-09-08T05:43:20;12.70;99.90
39095;DHT22;24840;47.508;19.376;2023-09-08T05:45:46;12.90;99.90
39095;DHT22;24840;47.508;19.376;2023-09-08T05:48:11;13.00;99.90
39095;DHT22;24840;47.508;19.376;2023-09-08T05:50:37;13.20;99.90
39095;DHT22;24840;47.508;19.376;2023-09-08T05:53:03;13.30;99.90
39095;DHT22;24840;47.508;19.376;2023-09-08T05:55:28;13.40;99.90
39095;DHT22;24840;47.508;19.376;2023-09-08T05:57:54;13.60;99.90
39095;DHT22;24840;47.508;19.376;2023-09-08T06:00:20;13.70;99.90
39095;DHT22;24840;47.508;19.376;2023-09-08T06:02:45;13.90;99.90
39095;DHT22;24840;47.508;19.376;2023-09-08T06:05:11;14.10;99.90
39095;DHT22;24840;47.508;19.376;2023-09-08T06:07:37;14.20;99.90
39095;DHT22;24840;47.508;19.376;2023-09-08T06:10:03;14.40;99.90
39095;DHT22;24840;47.508;19.376;2023-09-08T06:12:29;14.60;99.90
39095;DHT22;24840;47.508;19.376;2023-09-08T06:14:54;14.60;99.90
39095;DHT22;24840;47.508;19.376;2023-09-08T06:17:20;14.80;99.90
39095;DHT22;24840;47.508;19.376;2023-09-08T06:19:46;15.10;99.90
39095;DHT22;24840;47.508;19.376;2023-09-08T06:22:11;15.30;99.90
39095;DHT22;24840;47.508;19.376;2023-09-08T06:24:37;15.40;99.90
39095;DHT22;24840;47.508;19.376;2023-09-08T06:27:03;15.70;99.90
39095;DHT22;24840;47.508;19.376;2023-09-08T06:29:29;15.90;99.90
39095;DHT22;24840;47.508;19.376;2023-09-08T06:31:54;16.10;99.90
39095;DHT22;24840;47.508;19.376;2023-09-08T06:34:20;16.30;99.90
39095;DHT22;24840;47.508;19.376;2023-09-08T06:36:48;16.70;99.90
39095;DHT22;24840;47.508;19.376;2023-09-08T06:39:14;17.00;99.90
39095;DHT22;24840;47.508;19.376;2023-09-08T06:41:40;17.20;99.90
39095;DHT22;24840;47.508;19.376;2023-09-08T06:44:06;17.40;99.90
39095;DHT22;24840;47.508;19.376;2023-09-08T06:46:32;17.70;99.90
39095;DHT22;24840;47.508;19.376;2023-09-08T06:48:58;18.00;99.90
39095;DHT22;24840;47.508;19.376;2023-09-08T06:51:23;18.20;99.90
39095;DHT22;24840;47.508;19.376;2023-09-08T06:53:56;18.50;99.90
39095;DHT22;24840;47.508;19.376;2023-09-08T06:56:22;18.90;99.90
39095;DHT22;24840;47.508;19.376;2023-09-08T06:58:48;19.10;99.90
39095;DHT22;24840;47.508;19.376;2023-09-08T07:01:14;19.50;99.90
39095;DHT22;24840;47.508;19.376;2023-09-08T07:03:40;19.80;99.90
39095;DHT22;24840;47.508;19.376;2023-09-08T07:06:06;20.20;99.90
39095;DHT22;24840;47.508;19.376;2023-09-08T07:08:32;20.50;99.90
39095;DHT22;24840;47.508;19.376;2023-09-08T07:10:57;20.80;99.90
39095;DHT22;24840;47.508;19.376;2023-09-08T07:13:23;21.10;99.90
39095;DHT22;24840;47.508;19.376;2023-09-08T07:15:49;21.40;99.90
39095;DHT22;24840;47.508;19.376;2023-09-08T07:18:14;21.60;99.90
39095;DHT22;24840;47.508;19.376;2023-09-08T07:20:40;22.00;99.90
39095;DHT22;24840;47.508;19.376;2023-09-08T07:23:06;21.90;98.30
39095;DHT22;24840;47.508;19.376;2023-09-08T07:25:32;22.10;99.60
39095;DHT22;24840;47.508;19.376;2023-09-08T07:27:57;22.30;97.40
39095;DHT22;24840;47.508;19.376;2023-09-08T07:30:23;22.40;97.30
39095;DHT22;24840;47.508;19.376;2023-09-08T07:32:49;22.80;98.10
39095;DHT22;24840;47.508;19.376;2023-09-08T07:35:15;23.00;95.90
39095;DHT22;24840;47.508;19.376;2023-09-08T07:37:42;23.40;95.00
39095;DHT22;24840;47.508;19.376;2023-09-08T07:40:11;23.50;93.00
39095;DHT22;24840;47.508;19.376;2023-09-08T07:42:37;23.70;93.30
39095;DHT22;24840;47.508;19.376;2023-09-08T07:45:03;24.00;93.30
39095;DHT22;24840;47.508;19.376;2023-09-08T07:47:29;23.80;92.20
39095;DHT22;24840;47.508;19.376;2023-09-08T07:50:25;24.00;91.80
39095;DHT22;24840;47.508;19.376;2023-09-08T07:52:53;24.40;92.80
39095;DHT22;24840;47.508;19.376;2023-09-08T07:55:19;25.10;93.20
39095;DHT22;24840;47.508;19.376;2023-09-08T07:57:48;25.10;90.10
39095;DHT22;24840;47.508;19.376;2023-09-08T08:00:14;25.00;88.20
39095;DHT22;24840;47.508;19.376;2023-09-08T08:02:45;25.20;91.00
39095;DHT22;24840;47.508;19.376;2023-09-08T08:05:11;25.60;90.00
39095;DHT22;24840;47.508;19.376;2023-09-08T08:07:38;26.00;89.80
39095;DHT22;24840;47.508;19.376;2023-09-08T08:10:04;26.30;90.50
39095;DHT22;24840;47.508;19.376;2023-09-08T08:12:30;26.20;87.30
39095;DHT22;24840;47.508;19.376;2023-09-08T08:14:56;26.50;88.70
39095;DHT22;24840;47.508;19.376;2023-09-08T08:17:22;26.50;85.60
39095;DHT22;24840;47.508;19.376;2023-09-08T08:19:47;27.00;87.30
39095;DHT22;24840;47.508;19.376;2023-09-08T08:22:13;27.30;87.40
39095;DHT22;24840;47.508;19.376;2023-09-08T08:24:42;27.20;84.60
39095;DHT22;24840;47.508;19.376;2023-09-08T08:27:07;27.40;83.60
39095;DHT22;24840;47.508;19.376;2023-09-08T08:29:33;27.50;81.80
39095;DHT22;24840;47.508;19.376;2023-09-08T08:31:59;27.80;82.50
39095;DHT22;24840;47.508;19.376;2023-09-08T08:34:24;28.00;77.70
39095;DHT22;24840;47.508;19.376;2023-09-08T08:36:50;27.50;79.10
39095;DHT22;24840;47.508;19.376;2023-09-08T08:39:16;27.70;79.50
39095;DHT22;24840;47.508;19.376;2023-09-08T08:41:42;28.10;76.50
39095;DHT22;24840;47.508;19.376;2023-09-08T08:44:08;28.60;76.60
39095;DHT22;24840;47.508;19.376;2023-09-08T08:46:36;28.60;77.20
39095;DHT22;24840;47.508;19.376;2023-09-08T08:49:06;28.60;75.80
39095;DHT22;24840;47.508;19.376;2023-09-08T08:51:32;29.00;73.60
39095;DHT22;24840;47.508;19.376;2023-09-08T08:53:58;29.20;73.60
39095;DHT22;24840;47.508;19.376;2023-09-08T08:56:32;29.60;70.90
39095;DHT22;24840;47.508;19.376;2023-09-08T08:58:58;29.00;68.40
39095;DHT22;24840;47.508;19.376;2023-09-08T09:01:26;28.90;73.70
39095;DHT22;24840;47.508;19.376;2023-09-08T09:03:52;29.00;68.20
39095;DHT22;24840;47.508;19.376;2023-09-08T09:06:18;29.40;70.30
39095;DHT22;24840;47.508;19.376;2023-09-08T09:08:45;29.70;67.40
39095;DHT22;24840;47.508;19.376;2023-09-08T09:11:11;29.20;68.60
39095;DHT22;24840;47.508;19.376;2023-09-08T09:13:37;29.50;71.10
39095;DHT22;24840;47.508;19.376;2023-09-08T09:16:03;29.20;67.20
39095;DHT22;24840;47.508;19.376;2023-09-08T09:18:30;29.70;68.80
39095;DHT22;24840;47.508;19.376;2023-09-08T09:21:00;29.80;66.00
39095;DHT22;24840;47.508;19.376;2023-09-08T09:23:33;29.70;63.70
39095;DHT22;24840;47.508;19.376;2023-09-08T09:26:00;29.10;68.10
39095;DHT22;24840;47.508;19.376;2023-09-08T09:28:28;29.50;65.90
39095;DHT22;24840;47.508;19.376;2023-09-08T09:30:54;30.20;63.40
39095;DHT22;24840;47.508;19.376;2023-09-08T09:33:21;30.10;63.40
39095;DHT22;24840;47.508;19.376;2023-09-08T09:35:52;30.50;67.30
39095;DHT22;24840;47.508;19.376;2023-09-08T09:38:19;31.20;66.90
39095;DHT22;24840;47.508;19.376;2023-09-08T09:40:47;32.00;65.10
39095;DHT22;24840;47.508;19.376;2023-09-08T09:43:14;31.20;63.50
39095;DHT22;24840;47.508;19.376;2023-09-08T09:45:41;31.00;63.00
39095;DHT22;24840;47.508;19.376;2023-09-08T09:48:08;30.70;63.20
39095;DHT22;24840;47.508;19.376;2023-09-08T09:50:36;31.10;62.20
39095;DHT22;24840;47.508;19.376;2023-09-08T09:53:11;30.20;60.80
39095;DHT22;24840;47.508;19.376;2023-09-08T09:55:37;30.50;67.50
39095;DHT22;24840;47.508;19.376;2023-09-08T09:58:07;31.40;64.20
39095;DHT22;24840;47.508;19.376;2023-09-08T10:00:34;30.80;63.20
39095;DHT22;24840;47.508;19.376;2023-09-08T10:03:01;31.10;61.80
39095;DHT22;24840;47.508;19.376;2023-09-08T10:05:27;32.30;63.80
39095;DHT22;24840;47.508;19.376;2023-09-08T10:07:53;32.90;61.20
39095;DHT22;24840;47.508;19.376;2023-09-08T10:10:20;33.20;59.90
39095;DHT22;24840;47.508;19.376;2023-09-08T10:12:52;32.40;58.20
39095;DHT22;24840;47.508;19.376;2023-09-08T10:15:22;32.40;58.00
39095;DHT22;24840;47.508;19.376;2023-09-08T10:17:53;32.60;60.90
39095;DHT22;24840;47.508;19.376;2023-09-08T10:20:20;32.20;59.20
39095;DHT22;24840;47.508;19.376;2023-09-08T10:22:56;32.80;60.90
39095;DHT22;24840;47.508;19.376;2023-09-08T10:25:25;33.40;57.20
39095;DHT22;24840;47.508;19.376;2023-09-08T10:27:53;32.80;58.20
39095;DHT22;24840;47.508;19.376;2023-09-08T10:30:20;32.40;58.20
39095;DHT22;24840;47.508;19.376;2023-09-08T10:32:48;32.20;58.40
39095;DHT22;24840;47.508;19.376;2023-09-08T10:35:16;33.10;57.50
39095;DHT22;24840;47.508;19.376;2023-09-08T10:37:43;33.10;56.80
39095;DHT22;24840;47.508;19.376;2023-09-08T10:40:29;33.60;59.50
39095;DHT22;24840;47.508;19.376;2023-09-08T10:43:08;33.10;55.40
39095;DHT22;24840;47.508;19.376;2023-09-08T10:45:34;33.20;56.90
39095;DHT22;24840;47.508;19.376;2023-09-08T10:48:01;33.60;55.30
39095;DHT22;24840;47.508;19.376;2023-09-08T10:50:33;34.00;54.10
39095;DHT22;24840;47.508;19.376;2023-09-08T10:53:16;34.10;53.70
39095;DHT22;24840;47.508;19.376;2023-09-08T10:55:49;33.90;56.20
39095;DHT22;24840;47.508;19.376;2023-09-08T10:58:33;33.70;54.60
39095;DHT22;24840;47.508;19.376;2023-09-08T11:01:02;34.30;54.70
39095;DHT22;24840;47.508;19.376;2023-09-08T11:06:11;34.50;51.80
39095;DHT22;24840;47.508;19.376;2023-09-08T11:08:43;33.50;53.50
39095;DHT22;24840;47.508;19.376;2023-09-08T11:11:14;34.40;52.60
39095;DHT22;24840;47.508;19.376;2023-09-08T11:13:40;34.90;50.60
39095;DHT22;24840;47.508;19.376;2023-09-08T11:16:07;34.40;52.90
39095;DHT22;24840;47.508;19.376;2023-09-08T11:18:34;34.70;53.60
39095;DHT22;24840;47.508;19.376;2023-09-08T11:21:01;34.20;52.10
39095;DHT22;24840;47.508;19.376;2023-09-08T11:23:30;34.20;53.20
39095;DHT22;24840;47.508;19.376;2023-09-08T11:25:57;34.30;52.10
39095;DHT22;24840;47.508;19.376;2023-09-08T11:28:23;35.10;52.00
39095;DHT22;24840;47.508;19.376;2023-09-08T11:30:49;35.90;52.90
39095;DHT22;24840;47.508;19.376;2023-09-08T11:33:20;34.50;51.60
39095;DHT22;24840;47.508;19.376;2023-09-08T11:35:53;35.40;51.60
39095;DHT22;24840;47.508;19.376;2023-09-08T11:38:26;34.50;48.50
39095;DHT22;24840;47.508;19.376;2023-09-08T11:40:53;34.50;50.60
39095;DHT22;24840;47.508;19.376;2023-09-08T11:43:19;35.00;51.60
39095;DHT22;24840;47.508;19.376;2023-09-08T11:45:45;35.00;48.80
39095;DHT22;24840;47.508;19.376;2023-09-08T11:48:11;34.40;49.70
39095;DHT22;24840;47.508;19.376;2023-09-08T11:50:41;34.10;52.40
39095;DHT22;24840;47.508;19.376;2023-09-08T11:53:07;34.60;48.90
39095;DHT22;24840;47.508;19.376;2023-09-08T11:55:33;34.40;50.10
39095;DHT22;24840;47.508;19.376;2023-09-08T11:57:59;34.40;50.90
39095;DHT22;24840;47.508;19.376;2023-09-08T12:00:29;34.60;50.30
39095;DHT22;24840;47.508;19.376;2023-09-08T12:02:55;34.40;50.00
39095;DHT22;24840;47.508;19.376;2023-09-08T12:05:28;35.10;52.10
39095;DHT22;24840;47.508;19.376;2023-09-08T12:07:55;35.30;49.70
39095;DHT22;24840;47.508;19.376;2023-09-08T12:10:22;35.30;50.20
39095;DHT22;24840;47.508;19.376;2023-09-08T12:12:50;35.30;49.20
39095;DHT22;24840;47.508;19.376;2023-09-08T12:15:38;35.50;49.80
39095;DHT22;24840;47.508;19.376;2023-09-08T12:18:06;35.50;47.90
39095;DHT22;24840;47.508;19.376;2023-09-08T12:20:32;36.10;50.70
39095;DHT22;24840;47.508;19.376;2023-09-08T12:23:03;35.90;49.10
39095;DHT22;24840;47.508;19.376;2023-09-08T12:25:29;34.70;50.60
39095;DHT22;24840;47.508;19.376;2023-09-08T12:27:59;34.30;48.80
39095;DHT22;24840;47.508;19.376;2023-09-08T12:30:26;33.80;51.60
39095;DHT22;24840;47.508;19.376;2023-09-08T12:32:56;34.40;49.80
39095;DHT22;24840;47.508;19.376;2023-09-08T12:35:23;34.10;49.10
39095;DHT22;24840;47.508;19.376;2023-09-08T12:38:07;34.70;48.60
39095;DHT22;24840;47.508;19.376;2023-09-08T12:40:35;34.60;47.80
39095;DHT22;24840;47.508;19.376;2023-09-08T12:43:02;34.70;50.90
39095;DHT22;24840;47.508;19.376;2023-09-08T12:45:29;34.50;48.30
39095;DHT22;24840;47.508;19.376;2023-09-08T12:47:59;34.80;49.60
39095;DHT22;24840;47.508;19.376;2023-09-08T12:50:25;35.00;48.60
39095;DHT22;24840;47.508;19.376;2023-09-08T12:52:51;35.00;49.30
39095;DHT22;24840;47.508;19.376;2023-09-08T12:55:17;34.30;49.40
39095;DHT22;24840;47.508;19.376;2023-09-08T12:57:43;34.30;50.40
39095;DHT22;24840;47.508;19.376;2023-09-08T13:00:09;34.40;50.50
39095;DHT22;24840;47.508;19.376;2023-09-08T13:02:35;34.60;49.70
39095;DHT22;24840;47.508;19.376;2023-09-08T13:05:02;35.40;48.90
39095;DHT22;24840;47.508;19.376;2023-09-08T13:07:28;35.00;48.70
39095;DHT22;24840;47.508;19.376;2023-09-08T13:09:54;34.90;47.80
39095;DHT22;24840;47.508;19.376;2023-09-08T13:12:20;34.30;48.10
39095;DHT22;24840;47.508;19.376;2023-09-08T13:14:46;34.70;49.10
39095;DHT22;24840;47.508;19.376;2023-09-08T13:17:12;34.40;49.30
39095;DHT22;24840;47.508;19.376;2023-09-08T13:19:40;34.90;48.40
39095;DHT22;24840;47.508;19.376;2023-09-08T13:22:07;34.60;46.70
39095;DHT22;24840;47.508;19.376;2023-09-08T13:24:32;34.90;49.30
39095;DHT22;24840;47.508;19.376;2023-09-08T13:27:00;35.00;46.80
39095;DHT22;24840;47.508;19.376;2023-09-08T13:29:26;34.60;48.00
39095;DHT22;24840;47.508;19.376;2023-09-08T13:31:55;35.20;48.60
39095;DHT22;24840;47.508;19.376;2023-09-08T13:34:23;34.90;47.50
39095;DHT22;24840;47.508;19.376;2023-09-08T13:36:48;34.90;45.20
39095;DHT22;24840;47.508;19.376;2023-09-08T13:39:14;35.00;45.20
39095;DHT22;24840;47.508;19.376;2023-09-08T13:41:55;34.90;46.50
39095;DHT22;24840;47.508;19.376;2023-09-08T13:44:23;34.60;47.90
39095;DHT22;24840;47.508;19.376;2023-09-08T13:46:49;33.90;48.30
39095;DHT22;24840;47.508;19.376;2023-09-08T13:49:16;34.80;47.50
39095;DHT22;24840;47.508;19.376;2023-09-08T13:51:42;34.30;49.10
39095;DHT22;24840;47.508;19.376;2023-09-08T13:54:09;34.80;48.60
39095;DHT22;24840;47.508;19.376;2023-09-08T13:56:34;35.20;46.70
39095;DHT22;24840;47.508;19.376;2023-09-08T13:59:03;34.80;47.50
39095;DHT22;24840;47.508;19.376;2023-09-08T14:01:29;34.00;47.20
39095;DHT22;24840;47.508;19.376;2023-09-08T14:03:58;34.10;48.50
39095;DHT22;24840;47.508;19.376;2023-09-08T14:06:26;34.60;49.20
39095;DHT22;24840;47.508;19.376;2023-09-08T14:08:52;34.70;46.90
39095;DHT22;24840;47.508;19.376;2023-09-08T14:11:17;34.70;45.80
39095;DHT22;24840;47.508;19.376;2023-09-08T14:13:43;34.00;48.60
39095;DHT22;24840;47.508;19.376;2023-09-08T14:16:10;33.80;47.80
39095;DHT22;24840;47.508;19.376;2023-09-08T14:18:36;34.30;47.70
39095;DHT22;24840;47.508;19.376;2023-09-08T14:21:03;34.50;49.90
39095;DHT22;24840;47.508;19.376;2023-09-08T14:23:29;33.80;48.10
39095;DHT22;24840;47.508;19.376;2023-09-08T14:25:55;33.50;48.40
39095;DHT22;24840;47.508;19.376;2023-09-08T14:28:21;33.70;47.60
39095;DHT22;24840;47.508;19.376;2023-09-08T14:30:47;33.50;47.20
39095;DHT22;24840;47.508;19.376;2023-09-08T14:33:14;33.40;47.50
39095;DHT22;24840;47.508;19.376;2023-09-08T14:35:44;33.10;48.80
39095;DHT22;24840;47.508;19.376;2023-09-08T14:38:10;33.50;47.50
39095;DHT22;24840;47.508;19.376;2023-09-08T14:40:36;33.60;48.60
39095;DHT22;24840;47.508;19.376;2023-09-08T14:43:01;33.20;47.50
39095;DHT22;24840;47.508;19.376;2023-09-08T14:45:27;33.00;47.60
39095;DHT22;24840;47.508;19.376;2023-09-08T14:47:53;32.70;46.20
39095;DHT22;24840;47.508;19.376;2023-09-08T14:50:19;32.80;49.10
39095;DHT22;24840;47.508;19.376;2023-09-08T14:52:45;32.60;47.60
39095;DHT22;24840;47.508;19.376;2023-09-08T14:55:11;32.70;48.20
39095;DHT22;24840;47.508;19.376;2023-09-08T14:57:37;32.50;46.60
39095;DHT22;24840;47.508;19.376;2023-09-08T15:00:03;32.10;47.70
39095;DHT22;24840;47.508;19.376;2023-09-08T15:02:33;32.20;52.00
39095;DHT22;24840;47.508;19.376;2023-09-08T15:04:59;32.30;52.40
39095;DHT22;24840;47.508;19.376;2023-09-08T15:07:24;32.10;53.40
39095;DHT22;24840;47.508;19.376;2023-09-08T15:09:50;31.80;50.70
39095;DHT22;24840;47.508;19.376;2023-09-08T15:12:19;31.80;50.30
39095;DHT22;24840;47.508;19.376;2023-09-08T15:14:44;31.40;49.40
39095;DHT22;24840;47.508;19.376;2023-09-08T15:17:13;31.60;51.50
39095;DHT22;24840;47.508;19.376;2023-09-08T15:19:39;31.50;50.60
39095;DHT22;24840;47.508;19.376;2023-09-08T15:22:04;31.20;51.40